createdAt,value
2022-08-17T00:00:06.798Z,3.05
2022-08-17T00:03:10.481Z,3.40
2022-08-17T00:05:52.069Z,3.28
2022-08-17T00:08:25.691Z,2.88
2022-08-17T00:10:54.231Z,3.38
2022-08-17T00:13:27.459Z,3.17
2022-08-17T00:16:04.320Z,3.55
2022-08-17T00:18:57.637Z,2.92
2022-08-17T00:21:25.143Z,3.42
2022-08-17T00:23:53.314Z,3.60
2022-08-17T00:26:38.763Z,3.53
2022-08-17T00:29:09.748Z,2.72
2022-08-17T00:31:46.481Z,2.85
2022-08-17T00:34:13.535Z,3.72
2022-08-17T00:36:40.598Z,3.25
2022-08-17T00:39:07.709Z,2.95
2022-08-17T00:41:35.788Z,2.88
2022-08-17T00:44:05.120Z,2.95
2022-08-17T00:46:39.263Z,2.70
2022-08-17T00:49:08.696Z,3.17
2022-08-17T00:51:45.123Z,3.20
2022-08-17T00:54:41.020Z,3.08
2022-08-17T00:57:15.120Z,2.88
2022-08-17T01:00:01.527Z,2.53
2022-08-17T01:02:34.430Z,2.83
2022-08-17T01:05:11.994Z,2.78
2022-08-17T01:07:40.050Z,3.15
2022-08-17T01:11:00.789Z,3.35
2022-08-17T01:12:56.790Z,2.88
2022-08-17T01:15:23.810Z,3.55
2022-08-17T01:17:50.897Z,3.00
2022-08-17T01:20:18.009Z,3.03
2022-08-17T01:22:45.218Z,2.63
2022-08-17T01:27:40.832Z,2.80
2022-08-17T01:30:58.955Z,2.60
2022-08-17T01:32:59.912Z,2.60
2022-08-17T01:35:29.571Z,2.13
2022-08-17T01:37:56.584Z,2.60
2022-08-17T01:40:33.393Z,3.28
2022-08-17T01:43:10.446Z,2.60
2022-08-17T01:45:45.893Z,2.28
2022-08-17T01:48:14.543Z,2.38
2022-08-17T01:50:52.560Z,2.10
2022-08-17T01:53:26.013Z,2.63
2022-08-17T01:55:58.972Z,2.47
2022-08-17T01:58:25.943Z,2.30
2022-08-17T02:01:00.324Z,2.28
2022-08-17T02:03:29.424Z,2.10
2022-08-17T02:05:56.845Z,2.03
2022-08-17T02:08:37.305Z,2.40
2022-08-17T02:11:13.787Z,2.38
2022-08-17T02:13:40.857Z,2.13
2022-08-17T02:16:08.196Z,2.30
2022-08-17T02:18:35.293Z,2.60
2022-08-17T02:23:34.986Z,3.10
2022-08-17T02:26:02.341Z,2.35
2022-08-17T02:28:30.064Z,2.42
2022-08-17T02:31:01.353Z,2.83
2022-08-17T02:33:42.690Z,2.90
2022-08-17T02:36:12.967Z,2.08
2022-08-17T02:38:41.098Z,2.15
2022-08-17T02:41:08.376Z,2.88
2022-08-17T02:46:02.518Z,2.10
2022-08-17T02:48:31.621Z,2.47
2022-08-17T02:50:59.953Z,1.88
2022-08-17T02:53:27.736Z,2.10
2022-08-17T02:56:02.927Z,1.88
2022-08-17T03:01:04.292Z,1.67
2022-08-17T03:03:31.773Z,1.55
2022-08-17T03:05:58.813Z,2.28
2022-08-17T03:08:25.789Z,2.17
2022-08-17T03:10:53.290Z,2.80
2022-08-17T03:13:20.682Z,2.35
2022-08-17T03:15:48.629Z,1.90
2022-08-17T03:18:24.326Z,1.92
2022-08-17T03:20:57.596Z,2.08
2022-08-17T03:23:25.754Z,2.25
2022-08-17T03:25:54.392Z,1.67
2022-08-17T03:28:24.148Z,2.28
2022-08-17T03:30:56.157Z,2.28
2022-08-17T03:33:27.420Z,2.35
2022-08-17T03:35:56.191Z,2.10
2022-08-17T03:38:26.742Z,1.90
2022-08-17T03:40:59.681Z,2.13
2022-08-17T03:43:31.685Z,1.90
2022-08-17T03:46:28.777Z,1.77
2022-08-17T03:49:25.138Z,1.70
2022-08-17T03:52:11.721Z,2.75
2022-08-17T03:54:57.401Z,2.45
2022-08-17T03:57:24.792Z,2.50
2022-08-17T03:59:52.859Z,2.90
2022-08-17T04:02:28.242Z,2.55
2022-08-17T04:04:55.341Z,2.90
2022-08-17T04:07:25.129Z,3.08
2022-08-17T04:09:52.217Z,1.90
2022-08-17T04:12:22.342Z,2.00
2022-08-17T04:14:52.641Z,1.70
2022-08-17T04:17:27.249Z,2.15
2022-08-17T04:19:55.266Z,1.75
2022-08-17T04:22:31.346Z,1.80
2022-08-17T04:25:14.962Z,1.77
2022-08-17T04:27:42.046Z,1.98
2022-08-17T04:30:09.779Z,2.15
2022-08-17T04:33:03.436Z,2.88
2022-08-17T04:35:36.033Z,2.63
2022-08-17T04:38:03.139Z,1.98
2022-08-17T04:40:48.806Z,2.58
2022-08-17T04:43:19.098Z,1.73
2022-08-17T04:45:54.930Z,2.15
2022-08-17T04:48:29.980Z,1.83
2022-08-17T04:51:10.185Z,1.70
2022-08-17T04:53:39.567Z,1.98
2022-08-17T04:56:07.013Z,1.98
2022-08-17T04:58:34.182Z,1.85
2022-08-17T05:03:28.893Z,1.60
2022-08-17T05:05:55.988Z,2.03
2022-08-17T05:08:23.197Z,2.10
2022-08-17T05:10:50.500Z,1.92
2022-08-17T05:13:21.024Z,2.22
2022-08-17T05:15:52.168Z,2.10
2022-08-17T05:18:19.257Z,2.55
2022-08-17T05:20:46.965Z,2.00
2022-08-17T05:23:17.097Z,2.08
2022-08-17T05:25:48.586Z,2.55
2022-08-17T05:28:19.601Z,2.13
2022-08-17T05:30:51.985Z,2.10
2022-08-17T05:33:22.505Z,2.08
2022-08-17T05:35:52.265Z,2.17
2022-08-17T05:38:21.777Z,2.50
2022-08-17T05:40:49.197Z,2.13
2022-08-17T05:43:28.173Z,2.28
2022-08-17T05:46:20.513Z,2.13
2022-08-17T05:48:57.793Z,2.25
2022-08-17T05:52:02.452Z,2.00
2022-08-17T05:54:44.171Z,2.35
2022-08-17T05:57:54.083Z,1.90
2022-08-17T06:01:09.926Z,2.35
2022-08-17T06:03:55.421Z,1.95
2022-08-17T06:06:34.047Z,1.77
2022-08-17T06:09:06.752Z,2.20
2022-08-17T06:11:45.650Z,1.65
2022-08-17T06:14:35.496Z,2.35
2022-08-17T06:17:08.292Z,2.45
2022-08-17T06:19:51.237Z,2.17
2022-08-17T06:22:22.067Z,12.05
2022-08-17T06:25:03.633Z,2.70
2022-08-17T06:28:14.685Z,2.00
2022-08-17T06:31:00.081Z,1.42
2022-08-17T06:33:35.147Z,2.22
2022-08-17T06:36:09.575Z,2.63
2022-08-17T06:38:59.249Z,2.65
2022-08-17T06:41:38.135Z,2.03
2022-08-17T06:44:43.651Z,1.90
2022-08-17T06:47:28.016Z,1.70
2022-08-17T06:50:20.427Z,2.25
2022-08-17T06:53:03.545Z,2.13
2022-08-17T06:55:44.135Z,1.88
2022-08-17T06:58:22.853Z,2.00
2022-08-17T07:00:58.165Z,2.10
2022-08-17T07:03:38.709Z,1.77
2022-08-17T07:06:15.182Z,1.92
2022-08-17T07:09:06.334Z,1.60
2022-08-17T07:12:05.311Z,2.10
2022-08-17T07:14:40.971Z,1.83
2022-08-17T07:17:15.421Z,2.05
2022-08-17T07:19:46.518Z,1.70
2022-08-17T07:22:14.013Z,1.63
2022-08-17T07:24:50.905Z,1.48
2022-08-17T07:30:12.384Z,1.80
2022-08-17T07:32:54.565Z,1.73
2022-08-17T07:35:31.257Z,2.33
2022-08-17T07:38:27.726Z,1.98
2022-08-17T07:41:04.967Z,1.85
2022-08-17T07:43:34.300Z,2.28
2022-08-17T07:46:38.000Z,2.15
2022-08-17T07:49:07.724Z,2.22
2022-08-17T07:51:39.487Z,2.22
2022-08-17T07:54:15.607Z,1.50
2022-08-17T07:56:59.913Z,1.75
2022-08-17T07:59:34.288Z,5.05
2022-08-17T08:02:33.728Z,14.27
2022-08-17T08:05:06.690Z,1.88
2022-08-17T08:07:50.651Z,1.88
2022-08-17T08:10:28.767Z,1.48
2022-08-17T08:13:23.418Z,1.45
2022-08-17T08:15:54.716Z,1.73
2022-08-17T08:18:53.706Z,1.90
2022-08-17T08:21:56.446Z,2.10
2022-08-17T08:24:42.989Z,1.67
2022-08-17T08:27:18.988Z,1.77
2022-08-17T08:30:16.574Z,1.45
2022-08-17T08:33:29.419Z,1.77
2022-08-17T08:36:56.962Z,1.50
2022-08-17T08:39:43.734Z,1.45
2022-08-17T08:42:37.191Z,1.48
2022-08-17T08:45:43.932Z,1.17
2022-08-17T08:48:55.804Z,1.10
2022-08-17T08:51:55.515Z,1.10
2022-08-17T08:54:34.606Z,1.65
2022-08-17T08:57:25.566Z,1.27
2022-08-17T09:00:17.148Z,1.50
2022-08-17T09:02:44.063Z,1.13
2022-08-17T09:07:58.681Z,1.38
2022-08-17T09:11:06.624Z,1.20
2022-08-17T09:13:45.468Z,1.33
2022-08-17T09:16:36.766Z,1.25
2022-08-17T09:19:15.774Z,1.15
2022-08-17T09:22:12.059Z,1.23
2022-08-17T09:24:46.482Z,1.45
2022-08-17T09:27:38.213Z,1.52
2022-08-17T09:30:09.224Z,1.20
2022-08-17T09:32:41.069Z,1.20
2022-08-17T09:35:25.113Z,1.85
2022-08-17T09:38:31.764Z,1.10
2022-08-17T09:41:08.360Z,1.27
2022-08-17T09:43:53.677Z,1.23
2022-08-17T09:46:50.735Z,1.45
2022-08-17T09:49:28.468Z,1.58
2022-08-17T09:52:05.535Z,1.35
2022-08-17T09:54:39.151Z,1.13
2022-08-17T09:57:30.416Z,1.17
2022-08-17T10:00:24.970Z,1.38
2022-08-17T10:02:57.896Z,1.63
2022-08-17T10:05:28.006Z,1.42
2022-08-17T10:08:12.472Z,1.17
2022-08-17T10:10:56.656Z,1.33
2022-08-17T10:13:27.104Z,1.10
2022-08-17T10:16:08.216Z,1.50
2022-08-17T10:19:02.740Z,1.40
2022-08-17T10:21:51.325Z,1.63
2022-08-17T10:25:21.360Z,1.00
2022-08-17T10:27:54.091Z,1.48
2022-08-17T10:30:27.286Z,1.45
2022-08-17T10:33:01.800Z,0.90
2022-08-17T10:35:50.260Z,1.02
2022-08-17T10:38:33.216Z,1.48
2022-08-17T10:41:21.077Z,1.27
2022-08-17T10:44:38.496Z,1.42
2022-08-17T10:47:14.968Z,3.60
2022-08-17T10:49:49.568Z,1.40
2022-08-17T10:52:19.559Z,1.50
2022-08-17T10:54:50.775Z,1.40
2022-08-17T10:57:33.757Z,1.58
2022-08-17T11:00:15.824Z,1.48
2022-08-17T11:02:49.982Z,1.77
2022-08-17T11:05:45.115Z,1.95
2022-08-17T11:08:14.821Z,1.67
2022-08-17T11:10:52.273Z,1.58
2022-08-17T11:13:37.922Z,2.17
2022-08-17T11:16:13.457Z,1.98
2022-08-17T11:18:55.193Z,1.92
2022-08-17T11:21:22.115Z,2.35
2022-08-17T11:24:07.327Z,2.63
2022-08-17T11:26:37.276Z,2.83
2022-08-17T11:29:16.661Z,2.60
2022-08-17T11:31:58.434Z,2.50
2022-08-17T11:34:28.380Z,3.03
2022-08-17T11:37:01.842Z,2.60
2022-08-17T11:39:35.274Z,2.70
2022-08-17T11:42:25.513Z,2.58
2022-08-17T11:45:31.681Z,2.90
2022-08-17T11:48:36.695Z,2.63
2022-08-17T11:51:29.960Z,23.45
2022-08-17T11:54:31.085Z,2.65
2022-08-17T11:56:51.564Z,2.72
2022-08-17T11:59:33.897Z,3.95
2022-08-17T12:02:31.656Z,3.97
2022-08-17T12:05:14.474Z,3.30
2022-08-17T12:08:01.083Z,3.60
2022-08-17T12:10:34.334Z,3.60
2022-08-17T12:13:10.240Z,4.10
2022-08-17T12:15:42.348Z,11.17
2022-08-17T12:18:23.136Z,5.40
2022-08-17T12:21:06.399Z,3.58
2022-08-17T12:23:47.425Z,3.60
2022-08-17T12:26:20.834Z,3.95
2022-08-17T12:28:59.751Z,3.17
2022-08-17T12:31:30.834Z,3.95
2022-08-17T12:34:00.948Z,4.07
2022-08-17T12:36:29.086Z,4.05
2022-08-17T12:39:14.287Z,3.80
2022-08-17T12:41:57.350Z,4.75
2022-08-17T12:44:29.357Z,5.20
2022-08-17T12:47:01.717Z,4.80
2022-08-17T12:49:35.539Z,4.55
2022-08-17T12:52:11.144Z,4.55
2022-08-17T12:54:54.975Z,5.15
2022-08-17T12:57:32.754Z,4.10
2022-08-17T13:00:23.596Z,5.30
2022-08-17T13:02:53.693Z,6.65
2022-08-17T13:05:31.853Z,4.60
2022-08-17T13:08:00.249Z,5.20
2022-08-17T13:10:33.546Z,4.50
2022-08-17T13:13:05.287Z,5.13
2022-08-17T13:15:44.726Z,5.18
2022-08-17T13:18:52.484Z,5.72
2022-08-17T13:21:19.584Z,6.22
2022-08-17T13:24:01.085Z,5.15
2022-08-17T13:26:36.909Z,5.78
2022-08-17T13:29:35.673Z,7.22
2022-08-17T13:32:12.888Z,5.93
2022-08-17T13:35:12.516Z,4.82
2022-08-17T13:37:58.960Z,6.55
2022-08-17T13:40:30.625Z,6.18
2022-08-17T13:42:58.185Z,6.50
2022-08-17T13:45:34.919Z,6.28
2022-08-17T13:48:08.412Z,6.90
2022-08-17T13:50:37.891Z,5.32
2022-08-17T13:53:23.257Z,5.63
2022-08-17T13:55:57.689Z,5.63
2022-08-17T13:58:35.153Z,6.57
2022-08-17T14:01:32.912Z,6.38
2022-08-17T14:04:03.936Z,5.88
2022-08-17T14:06:53.858Z,5.55
2022-08-17T14:09:36.847Z,5.43
2022-08-17T14:12:10.651Z,4.93
2022-08-17T14:14:39.036Z,4.80
2022-08-17T14:17:06.165Z,4.63
2022-08-17T14:19:36.145Z,4.97
2022-08-17T14:22:05.312Z,5.03
2022-08-17T14:24:44.502Z,4.32
2022-08-17T14:27:12.913Z,5.22
2022-08-17T14:29:41.469Z,5.78
2022-08-17T14:32:25.424Z,5.20
2022-08-17T14:34:53.398Z,5.43
2022-08-17T14:37:22.521Z,5.95
2022-08-17T14:39:50.188Z,6.15
2022-08-17T14:42:18.490Z,5.90
2022-08-17T14:44:45.778Z,6.45
2022-08-17T14:47:14.959Z,6.22
2022-08-17T14:49:42.321Z,4.82
2022-08-17T14:52:12.759Z,5.50
2022-08-17T14:54:45.210Z,6.00
2022-08-17T14:57:25.859Z,6.80
2022-08-17T15:00:00.257Z,6.20
2022-08-17T15:02:29.866Z,5.35
2022-08-17T15:05:02.779Z,4.85
2022-08-17T15:07:30.995Z,5.55
2022-08-17T15:10:02.260Z,6.22
2022-08-17T15:12:33.803Z,6.35
2022-08-17T15:15:04.747Z,6.15
2022-08-17T15:17:43.705Z,5.38
2022-08-17T15:20:20.703Z,8.15
2022-08-17T15:22:49.708Z,7.95
2022-08-17T15:25:19.192Z,9.23
2022-08-17T15:27:47.428Z,9.40
2022-08-17T15:30:15.582Z,8.20
2022-08-17T15:32:48.212Z,9.30
2022-08-17T15:35:27.453Z,9.65
2022-08-17T15:38:11.798Z,9.65
2022-08-17T15:40:42.774Z,9.77
2022-08-17T15:43:22.015Z,9.43
2022-08-17T15:46:12.141Z,10.23
2022-08-17T15:48:46.090Z,8.52
2022-08-17T15:51:17.791Z,10.90
2022-08-17T15:53:48.069Z,8.57
2022-08-17T15:56:15.466Z,6.88
2022-08-17T15:58:44.218Z,9.68
2022-08-17T16:01:17.067Z,8.45
2022-08-17T16:04:04.069Z,10.90
2022-08-17T16:06:33.531Z,9.18
2022-08-17T16:09:00.667Z,8.95
2022-08-17T16:11:27.715Z,8.70
2022-08-17T16:13:56.094Z,10.23
2022-08-17T16:16:23.746Z,9.57
2022-08-17T16:18:56.997Z,9.55
2022-08-17T16:21:27.673Z,10.20
2022-08-17T16:23:58.946Z,10.98
2022-08-17T16:26:27.565Z,12.55
2022-08-17T16:28:55.693Z,9.32
2022-08-17T16:31:23.609Z,10.05
2022-08-17T16:34:15.563Z,10.57
2022-08-17T16:36:38.446Z,10.23
2022-08-17T16:39:05.700Z,10.48
2022-08-17T16:41:48.551Z,10.05
2022-08-17T16:44:17.656Z,10.13
2022-08-17T16:46:46.288Z,10.05
2022-08-17T16:49:35.146Z,12.63
2022-08-17T16:52:03.371Z,11.15
2022-08-17T16:54:30.497Z,13.75
2022-08-17T16:56:57.647Z,12.73
2022-08-17T17:00:02.216Z,14.65
2022-08-17T17:02:49.496Z,16.52
2022-08-17T17:05:22.559Z,15.13
2022-08-17T17:08:01.038Z,14.98
2022-08-17T17:10:42.174Z,15.07
2022-08-17T17:13:33.666Z,14.52
2022-08-17T17:16:29.522Z,13.02
2022-08-17T17:19:18.011Z,14.00
2022-08-17T17:22:24.876Z,13.95
2022-08-17T17:25:17.941Z,14.00
2022-08-17T17:28:01.970Z,12.88
2022-08-17T17:30:48.942Z,12.02
2022-08-17T17:33:40.565Z,12.70
2022-08-17T17:36:29.370Z,10.98
2022-08-17T17:39:04.218Z,11.85
2022-08-17T17:41:48.957Z,12.15
2022-08-17T17:44:21.722Z,12.98
2022-08-17T17:46:54.542Z,12.30
2022-08-17T17:49:21.639Z,11.98
2022-08-17T17:52:19.463Z,13.05
2022-08-17T17:54:54.203Z,13.25
2022-08-17T17:57:59.617Z,13.38
2022-08-17T18:00:33.028Z,12.73
2022-08-17T18:02:59.973Z,11.20
2022-08-17T18:08:33.995Z,12.00
2022-08-17T18:11:24.581Z,11.95
2022-08-17T18:14:14.809Z,12.13
2022-08-17T18:16:42.865Z,11.68
2022-08-17T18:19:15.646Z,10.77
2022-08-17T18:21:46.439Z,10.18
2022-08-17T18:24:14.396Z,9.95
2022-08-17T18:27:00.783Z,10.05
2022-08-17T18:29:27.736Z,10.27
2022-08-17T18:34:47.626Z,11.13
2022-08-17T18:37:34.801Z,9.77
2022-08-17T18:43:02.903Z,10.98
2022-08-17T18:45:47.158Z,10.65
2022-08-17T18:48:28.469Z,10.23
2022-08-17T18:51:02.217Z,10.18
2022-08-17T18:53:39.182Z,10.02
2022-08-17T18:56:28.022Z,10.40
2022-08-17T18:59:27.009Z,9.90
2022-08-17T19:02:27.303Z,11.35
2022-08-17T19:05:34.002Z,10.82
2022-08-17T19:08:26.629Z,9.93
2022-08-17T19:10:58.433Z,9.52
2022-08-17T19:13:49.843Z,8.45
2022-08-17T19:16:26.865Z,9.27
2022-08-17T19:18:59.759Z,11.63
2022-08-17T19:21:53.229Z,10.02
2022-08-17T19:24:23.387Z,10.27
2022-08-17T19:27:10.786Z,10.93
2022-08-17T19:29:46.561Z,11.32
2022-08-17T19:32:18.003Z,10.45
2022-08-17T19:34:45.272Z,9.43
2022-08-17T19:37:38.764Z,10.80
2022-08-17T19:40:50.696Z,9.02
2022-08-17T19:43:31.663Z,11.93
2022-08-17T19:46:16.303Z,10.65
2022-08-17T19:49:06.431Z,10.32
2022-08-17T19:52:04.083Z,10.13
2022-08-17T19:54:55.290Z,11.65
2022-08-17T19:57:34.186Z,9.88
2022-08-17T20:00:10.809Z,11.27
2022-08-17T20:03:05.616Z,10.30
2022-08-17T20:06:08.855Z,9.35
2022-08-17T20:08:36.815Z,9.50
2022-08-17T20:11:18.421Z,10.02
2022-08-17T20:14:07.182Z,10.45
2022-08-17T20:16:34.352Z,10.25
2022-08-17T20:21:37.199Z,11.93
2022-08-17T20:24:32.452Z,11.30
2022-08-17T20:27:31.360Z,11.77
2022-08-17T20:30:04.269Z,10.82
2022-08-17T20:32:35.635Z,12.55
2022-08-17T20:35:17.861Z,11.32
2022-08-17T20:37:54.076Z,11.95
2022-08-17T20:40:28.739Z,11.25
2022-08-17T20:42:57.254Z,10.63
2022-08-17T20:45:26.170Z,11.00
2022-08-17T20:51:11.265Z,10.52
2022-08-17T20:53:47.669Z,11.55
2022-08-17T20:56:43.046Z,11.73
2022-08-17T20:59:31.593Z,11.52
2022-08-17T21:02:18.351Z,13.00
2022-08-17T21:05:04.030Z,11.60
2022-08-17T21:07:41.039Z,12.02
2022-08-17T21:10:19.509Z,13.60
2022-08-17T21:12:59.120Z,12.88
2022-08-17T21:15:54.054Z,12.57
2022-08-17T21:18:44.016Z,12.63
2022-08-17T21:21:15.393Z,12.85
2022-08-17T21:24:05.409Z,11.45
2022-08-17T21:26:55.573Z,12.70
2022-08-17T21:29:30.877Z,11.35
2022-08-17T21:32:02.898Z,12.10
2022-08-17T21:34:43.721Z,13.55
2022-08-17T21:37:23.365Z,12.00
2022-08-17T21:39:58.667Z,11.77
2022-08-17T21:42:29.757Z,13.32
2022-08-17T21:45:08.079Z,12.68
2022-08-17T21:47:35.391Z,13.88
2022-08-17T21:50:22.558Z,12.20
2022-08-17T21:52:53.902Z,11.80
2022-08-17T21:55:30.944Z,13.40
2022-08-17T21:58:13.340Z,12.40
2022-08-17T22:00:44.225Z,13.65
2022-08-17T22:03:25.836Z,12.35
2022-08-17T22:05:52.928Z,12.25
2022-08-17T22:08:23.614Z,13.77
2022-08-17T22:10:59.446Z,14.48
2022-08-17T22:13:29.333Z,14.13
2022-08-17T22:16:15.405Z,12.32
2022-08-17T22:18:58.292Z,14.23
2022-08-17T22:21:26.442Z,14.93
2022-08-17T22:24:14.906Z,15.65
2022-08-17T22:27:01.675Z,14.32
2022-08-17T22:29:48.558Z,14.68
2022-08-17T22:32:37.398Z,14.40
2022-08-17T22:35:43.034Z,15.40
2022-08-17T22:38:18.985Z,14.60
2022-08-17T22:40:54.419Z,12.85
2022-08-17T22:43:29.057Z,13.82
2022-08-17T22:45:59.359Z,14.57
2022-08-17T22:48:29.267Z,13.75
2022-08-17T22:51:12.384Z,14.07
2022-08-17T22:54:13.273Z,14.52
2022-08-17T22:57:08.953Z,14.70
2022-08-17T22:59:49.656Z,17.13
2022-08-17T23:02:35.543Z,16.27
2022-08-17T23:05:16.980Z,16.50
2022-08-17T23:07:45.925Z,17.02
2022-08-17T23:10:14.544Z,16.77
2022-08-17T23:12:41.663Z,16.27
2022-08-17T23:15:16.165Z,16.13
2022-08-17T23:17:44.534Z,12.95
2022-08-17T23:20:15.303Z,13.40
2022-08-17T23:22:51.694Z,14.60
2022-08-17T23:25:31.904Z,15.55
2022-08-17T23:28:03.714Z,17.83
2022-08-17T23:30:33.590Z,18.58
2022-08-17T23:33:08.477Z,17.73
2022-08-17T23:35:40.256Z,16.27
2022-08-17T23:38:11.859Z,17.85
2022-08-17T23:40:40.580Z,14.57
2022-08-17T23:43:24.175Z,15.80
2022-08-17T23:45:54.536Z,19.85
2022-08-17T23:48:35.115Z,15.27
2022-08-17T23:51:17.329Z,15.88
2022-08-17T23:53:50.012Z,15.55
2022-08-17T23:56:22.169Z,16.95
2022-08-17T23:58:49.161Z,16.00
